Laughlin, NV (89028)

7:14 PM PDT on March 28, 2017 (GMT -0700)
Bill at Desert Foothills Estates | | Change Station

Elev 994 ft 35.15 °N, 114.53 °W | Updated 2 seconds ago

Clear
Clear
73.1 °F
Feels Like 75 °F
N
6.7
Wind Variable Wind from NNE
Gusts 9.2 mph

Today
High -- | Low -- °F
--% Chance of Precip.
Yesterday
High -- | Low -- °F
Precip. -- in
Pressure 29.93 in
Visibility 10.0 miles
Clouds Clear
Heat Index 75 °F
Dew Point 26 °F
Humidity 17%
Rainfall 0.00 in
Snow Depth Not available.
6:30 AM 6:56 PM
New Moon, 1% visible
METAR KIFP 290155Z AUTO 35018G23KT 10SM CLR 24/M05 A2993 RMK AO2
Pressure 29.93 in
Visibility 10.0 miles
Clouds Clear
Heat Index 75 °F
Dew Point 26 °F
Humidity 17%
Rainfall 0.00 in
Snow Depth Not available.
6:30 AM 6:56 PM
New Moon, 1% visible
METAR KIFP 290155Z AUTO 35018G23KT 10SM CLR 24/M05 A2993 RMK AO2

Get Your Daily Forecast Email!

Thanks for signing up!

Be on the lookout for a verification email in your inbox.

You'll start receiving severe weather alerts in your inbox..

×

10-Day Weather Forecast

Almanac

Astronomy

Mar. 28, 2017 Rise Set
Actual Time
Civil Twilight
Nautical Twilight
Astronomical Twilight
Moon
Length of Visible Light
Length of Day
Tomorrow will be .
, % of the Moon is Illuminated

Today's Extremes

State Highs State Lows

Community

WunderPhotos

Upload Photos

1,962,540 photos uploaded!

WunderBlog® & News

Nearby

Air Quality

  Air Quality AQ Index Pollutant
Not available.

Snow Depth

Station Depth Elevation

Earthquake Activity

City Distance Mag. Time & Date
Minimum magnitude displayed is 2.5.

Earthquake Activity

City Distance Mag. Time & Date
Minimum magnitude displayed is 2.5.

Coastal Water Temperatures

Place Temperature

Stations

Nearby Weather Stations

Station Location Temp. Windchill Dew Point Humidity Wind Precip. Elev Updated Type
                   

Watches & Warnings

Wind Advisory, High Wind Watch
Issued: 11:13 AM MDT Mar. 28, 2017 – National Weather Service

... Wind Advisory remains in effect until 8 PM PDT /8 PM MST/ this
evening...
... High wind watch remains in effect from Thursday afternoon
through Thursday evening...

* timing... winds will increase significantly Thursday as another
system moves into the region.

* Winds... southwest to west winds Thursday with gusts up to 60
mph possible.

* Impacts... strong winds may damage or displace unsecured
outdoor structures. Strong Crosswinds will make travel
difficult for high profile vehicles. Strong winds on area
lakes will make for dangerous boating conditions. Localized
blowing dust will result in pockets of low visibility.

Precautionary/preparedness actions...

A Wind Advisory means strong winds gusting over 40 mph can make
driving difficult... especially for high profile vehicles. Use
extra caution.

A high wind watch is issued when there is potential for a
hazardous high wind event. Continue to monitor forecasts for the
latest forecast information.